createdAt,value
2018-01-12T00:02:11.684Z,23.38
2018-01-12T00:04:39.805Z,20.48
2018-01-12T00:07:08.725Z,22.67
2018-01-12T00:09:37.597Z,25.20
2018-01-12T00:12:06.529Z,23.65
2018-01-12T00:14:34.657Z,21.75
2018-01-12T00:17:02.818Z,21.80
2018-01-12T00:19:31.292Z,22.63
2018-01-12T00:21:59.423Z,20.40
2018-01-12T00:24:27.587Z,21.33
2018-01-12T00:26:55.728Z,21.07
2018-01-12T00:29:24.620Z,21.50
2018-01-12T00:31:52.772Z,23.45
2018-01-12T00:34:20.914Z,25.15
2018-01-12T00:36:49.050Z,22.52
2018-01-12T00:39:17.227Z,19.33
2018-01-12T00:41:45.348Z,22.30
2018-01-12T00:44:13.506Z,20.50
2018-01-12T00:46:41.613Z,22.50
2018-01-12T00:49:10.522Z,21.97
2018-01-12T00:51:38.664Z,21.90
2018-01-12T00:54:06.804Z,20.90
2018-01-12T00:56:34.929Z,19.80
2018-01-12T00:59:03.064Z,19.20
2018-01-12T01:01:31.205Z,21.57
2018-01-12T01:03:59.345Z,21.57
2018-01-12T01:06:27.496Z,20.67
2018-01-12T01:08:56.405Z,19.83
2018-01-12T01:11:24.543Z,19.33
2018-01-12T01:13:52.702Z,21.57
2018-01-12T01:16:20.824Z,19.80
2018-01-12T01:18:48.955Z,21.70
2018-01-12T01:21:17.110Z,20.93
2018-01-12T01:23:45.249Z,19.63
2018-01-12T01:26:13.369Z,20.80
2018-01-12T01:28:41.545Z,19.40
2018-01-12T01:31:09.670Z,21.03
2018-01-12T01:33:38.261Z,23.43
2018-01-12T01:36:06.372Z,19.97
2018-01-12T01:38:34.513Z,18.33
2018-01-12T01:41:02.724Z,21.80
2018-01-12T01:43:30.882Z,22.57
2018-01-12T01:45:59.014Z,20.13
2018-01-12T01:48:38.909Z,19.63
2018-01-12T01:51:07.034Z,22.50
2018-01-12T01:53:35.176Z,21.95
2018-01-12T01:56:04.092Z,19.90
2018-01-12T01:58:32.221Z,23.33
2018-01-12T02:01:01.453Z,21.37
2018-01-12T02:03:29.849Z,23.75
2018-01-12T02:05:58.041Z,26.35
2018-01-12T02:08:26.293Z,27.67
2018-01-12T02:10:54.437Z,24.45
2018-01-12T02:13:22.629Z,27.48
2018-01-12T02:15:50.905Z,25.40
2018-01-12T02:18:19.166Z,27.15
2018-01-12T02:20:47.370Z,25.95
2018-01-12T02:23:15.549Z,27.52
2018-01-12T02:25:43.966Z,22.60
2018-01-12T02:28:13.652Z,28.02
2018-01-12T02:30:42.672Z,28.12
2018-01-12T02:33:11.765Z,24.05
2018-01-12T02:35:39.959Z,28.30
2018-01-12T02:38:08.093Z,28.27
2018-01-12T02:40:36.520Z,27.83
2018-01-12T02:43:04.809Z,27.70
2018-01-12T02:45:33.057Z,26.80
2018-01-12T02:48:01.268Z,25.48
2018-01-12T02:50:29.631Z,23.52
2018-01-12T02:52:57.781Z,28.45
2018-01-12T02:55:26.100Z,29.08
2018-01-12T02:57:54.356Z,28.90
2018-01-12T03:00:22.740Z,27.90
2018-01-12T03:02:51.657Z,30.00
2018-01-12T03:05:20.601Z,33.00
2018-01-12T03:07:48.925Z,28.87
2018-01-12T03:10:17.079Z,31.25
2018-01-12T03:12:45.242Z,31.55
2018-01-12T03:15:13.594Z,28.85
2018-01-12T03:17:42.988Z,29.10
2018-01-12T03:20:11.346Z,25.85
2018-01-12T03:22:40.363Z,32.42
2018-01-12T03:25:08.616Z,31.85
2018-01-12T03:27:36.805Z,28.60
2018-01-12T03:30:04.970Z,30.98
2018-01-12T03:32:33.139Z,25.20
2018-01-12T03:35:01.274Z,31.10
2018-01-12T03:37:29.420Z,25.90
2018-01-12T03:39:57.625Z,26.73
2018-01-12T03:42:25.898Z,28.80
2018-01-12T03:44:54.128Z,31.08
2018-01-12T03:47:22.287Z,27.98
2018-01-12T03:49:50.453Z,26.70
2018-01-12T03:52:18.724Z,22.62
2018-01-12T03:54:47.777Z,32.22
2018-01-12T03:57:16.028Z,30.62
2018-01-12T03:59:44.250Z,31.92
2018-01-12T04:02:14.282Z,34.35
2018-01-12T04:04:42.690Z,33.83
2018-01-12T04:07:11.136Z,29.98
2018-01-12T04:09:39.427Z,31.67
2018-01-12T04:12:07.725Z,30.98
2018-01-12T04:14:37.162Z,31.67
2018-01-12T04:17:06.458Z,40.83
2018-01-12T04:19:34.676Z,25.58
2018-01-12T04:22:03.813Z,36.25
2018-01-12T04:24:32.024Z,26.08
2018-01-12T04:27:00.256Z,33.13
2018-01-12T04:29:28.395Z,34.90
2018-01-12T04:31:56.700Z,32.08
2018-01-12T04:34:25.730Z,28.05
2018-01-12T04:36:54.714Z,24.80
2018-01-12T04:39:23.171Z,27.92
2018-01-12T04:41:51.748Z,25.48
2018-01-12T04:44:19.969Z,34.05
2018-01-12T04:46:48.104Z,32.45
2018-01-12T04:49:16.237Z,29.60
2018-01-12T04:51:44.376Z,27.95
2018-01-12T04:54:12.505Z,34.55
2018-01-12T04:56:40.651Z,35.05
2018-01-12T04:59:08.787Z,37.33
2018-01-12T05:01:36.962Z,29.37
2018-01-12T05:04:05.087Z,30.12
2018-01-12T05:06:33.263Z,30.75
2018-01-12T05:09:01.409Z,27.75
2018-01-12T05:11:29.560Z,30.48
2018-01-12T05:13:57.709Z,30.05
2018-01-12T05:16:26.740Z,26.65
2018-01-12T05:18:54.902Z,33.20
2018-01-12T05:21:23.038Z,30.20
2018-01-12T05:23:51.941Z,25.23
2018-01-12T05:26:20.057Z,33.10
2018-01-12T05:28:48.211Z,26.85
2018-01-12T05:31:16.507Z,30.42
2018-01-12T05:33:44.650Z,24.83
2018-01-12T05:36:12.794Z,29.35
2018-01-12T05:38:41.698Z,22.80
2018-01-12T05:41:09.844Z,22.27
2018-01-12T05:43:38.764Z,22.02
2018-01-12T05:46:06.930Z,25.12
2018-01-12T05:48:35.086Z,22.23
2018-01-12T05:51:03.241Z,25.77
2018-01-12T05:53:31.375Z,26.00
2018-01-12T05:55:59.517Z,24.20
2018-01-12T05:58:27.704Z,27.40
2018-01-12T06:01:07.589Z,23.40
2018-01-12T06:17:05.366Z,21.70
2018-01-12T06:19:34.266Z,23.97
2018-01-12T06:22:02.418Z,26.80
2018-01-12T06:24:30.552Z,28.62
2018-01-12T06:26:58.770Z,25.52
2018-01-12T06:29:27.715Z,22.42
2018-01-12T06:31:56.646Z,27.98
2018-01-12T06:34:24.806Z,24.35
2018-01-12T06:36:52.966Z,22.70
2018-01-12T06:39:21.950Z,22.98
2018-01-12T06:41:50.080Z,22.48
2018-01-12T06:44:18.221Z,21.30
2018-01-12T06:46:47.195Z,22.27
2018-01-12T06:49:15.392Z,20.60
2018-01-12T06:51:44.328Z,25.65
2018-01-12T06:54:12.539Z,24.12
2018-01-12T06:56:40.673Z,19.52
2018-01-12T06:59:08.846Z,18.55
2018-01-12T07:01:37.006Z,20.12
2018-01-12T07:04:05.161Z,23.12
2018-01-12T07:06:33.301Z,24.40
2018-01-12T07:09:01.474Z,31.27
2018-01-12T07:11:29.627Z,27.45
2018-01-12T07:13:58.185Z,27.85
2018-01-12T07:16:27.089Z,22.55
2018-01-12T07:18:55.307Z,22.30
2018-01-12T07:21:35.858Z,21.83
2018-01-12T07:24:04.789Z,18.60
2018-01-12T07:26:32.973Z,18.73
2018-01-12T07:29:01.866Z,18.50
2018-01-12T07:31:30.041Z,18.85
2018-01-12T07:33:58.171Z,22.73
2018-01-12T07:36:26.391Z,21.73
2018-01-12T07:38:54.549Z,20.65
2018-01-12T07:41:22.718Z,22.75
2018-01-12T07:43:50.982Z,18.55
2018-01-12T07:46:19.108Z,19.77
2018-01-12T07:48:47.294Z,19.90
2018-01-12T07:51:15.430Z,22.17
2018-01-12T07:53:43.581Z,23.80
2018-01-12T07:56:11.717Z,23.23
2018-01-12T07:58:39.865Z,20.08
2018-01-12T08:01:14.442Z,24.90
2018-01-12T08:03:42.582Z,20.20
2018-01-12T08:06:10.704Z,21.90
2018-01-12T08:08:38.864Z,21.65
2018-01-12T08:11:07.004Z,23.92
2018-01-12T08:13:35.144Z,20.70
2018-01-12T08:16:04.082Z,24.12
2018-01-12T08:18:32.189Z,21.23
2018-01-12T08:21:01.120Z,21.45
2018-01-12T08:23:29.260Z,20.95
2018-01-12T08:25:58.237Z,20.20
2018-01-12T08:28:26.404Z,20.17
2018-01-12T08:30:54.562Z,20.73
2018-01-12T08:33:22.682Z,21.85
2018-01-12T08:35:50.849Z,21.73
2018-01-12T08:38:19.750Z,21.48
2018-01-12T08:40:47.909Z,20.45
2018-01-12T08:43:16.796Z,23.35
2018-01-12T08:45:44.956Z,19.65
2018-01-12T08:48:13.877Z,21.00
2018-01-12T08:50:42.026Z,20.50
2018-01-12T08:53:10.976Z,20.77
2018-01-12T08:55:39.106Z,21.15
2018-01-12T08:58:07.317Z,21.65
2018-01-12T09:00:35.454Z,20.20
2018-01-12T09:03:03.595Z,22.62
2018-01-12T09:05:32.489Z,23.12
2018-01-12T09:08:01.423Z,22.58
2018-01-12T09:10:29.550Z,22.58
2018-01-12T09:12:57.716Z,20.85
2018-01-12T09:15:29.640Z,22.77
2018-01-12T09:18:00.738Z,23.95
2018-01-12T09:20:33.821Z,23.08
2018-01-12T09:36:33.374Z,22.33
2018-01-12T09:39:03.915Z,21.98
2018-01-12T09:41:32.013Z,23.27
2018-01-12T09:44:00.162Z,20.77
2018-01-12T09:46:29.102Z,17.77
2018-01-12T09:48:57.223Z,20.25
2018-01-12T09:51:26.120Z,16.42
2018-01-12T09:53:54.298Z,18.83
2018-01-12T09:56:22.430Z,20.33
2018-01-12T09:58:51.339Z,16.58
2018-01-12T10:01:25.560Z,17.15
2018-01-12T10:03:54.470Z,16.52
2018-01-12T10:06:22.600Z,18.95
2018-01-12T10:08:59.481Z,17.42
2018-01-12T10:11:27.612Z,18.73
2018-01-12T10:13:55.748Z,15.55
2018-01-12T10:16:23.888Z,15.97
2018-01-12T10:18:53.684Z,17.10
2018-01-12T10:21:33.493Z,13.57
2018-01-12T10:24:01.620Z,14.57
2018-01-12T10:26:29.761Z,13.33
2018-01-12T10:29:06.596Z,12.43
2018-01-12T10:31:46.387Z,14.80
2018-01-12T10:34:40.113Z,15.17
2018-01-12T10:37:08.257Z,12.97
2018-01-12T10:39:36.409Z,13.23
2018-01-12T10:42:05.369Z,16.20
2018-01-12T10:44:33.521Z,12.02
2018-01-12T10:47:16.384Z,12.85
2018-01-12T10:49:56.309Z,14.57
2018-01-12T10:52:36.272Z,12.15
2018-01-12T10:55:04.406Z,11.75
2018-01-12T10:57:32.562Z,12.80
2018-01-12T11:00:01.052Z,13.37
2018-01-12T11:02:29.767Z,15.27
2018-01-12T11:04:57.880Z,13.60
2018-01-12T11:07:26.044Z,14.27
2018-01-12T11:09:54.168Z,13.90
2018-01-12T11:12:22.320Z,15.30
2018-01-12T11:14:51.414Z,12.63
2018-01-12T11:17:20.324Z,14.13
2018-01-12T11:19:48.472Z,15.73
2018-01-12T11:22:16.608Z,14.65
2018-01-12T11:24:44.766Z,14.00
2018-01-12T11:27:12.892Z,16.97
2018-01-12T11:29:41.387Z,15.67
2018-01-12T11:32:09.508Z,13.43
2018-01-12T11:34:37.643Z,19.10
2018-01-12T11:37:06.138Z,15.87
2018-01-12T11:39:34.265Z,14.70
2018-01-12T11:42:02.743Z,15.00
2018-01-12T11:44:30.872Z,12.93
2018-01-12T11:46:59.001Z,13.47
2018-01-12T11:49:27.161Z,14.40
2018-01-12T11:51:55.318Z,14.00
2018-01-12T11:54:24.238Z,11.53
2018-01-12T11:56:52.368Z,12.30
2018-01-12T11:59:21.323Z,11.93
2018-01-12T12:01:50.349Z,13.10
2018-01-12T12:04:18.494Z,14.73
2018-01-12T12:06:46.640Z,14.50
2018-01-12T12:09:14.752Z,13.10
2018-01-12T12:11:42.893Z,15.10
2018-01-12T12:14:11.108Z,14.00
2018-01-12T12:16:39.989Z,13.90
2018-01-12T12:19:08.907Z,15.13
2018-01-12T12:21:37.033Z,16.40
2018-01-12T12:24:05.179Z,15.20
2018-01-12T12:26:33.362Z,15.53
2018-01-12T12:29:01.514Z,13.87
2018-01-12T12:31:29.686Z,15.57
2018-01-12T12:33:57.850Z,15.47
2018-01-12T12:36:25.990Z,15.07
2018-01-12T12:38:54.901Z,15.40
2018-01-12T12:41:23.032Z,15.20
2018-01-12T12:43:51.973Z,13.70
2018-01-12T12:46:20.112Z,12.60
2018-01-12T12:48:48.993Z,12.67
2018-01-12T12:51:17.929Z,14.40
2018-01-12T12:53:46.065Z,15.27
2018-01-12T12:56:15.005Z,15.57
2018-01-12T12:58:43.141Z,14.77
2018-01-12T13:01:11.288Z,14.77
2018-01-12T13:03:40.186Z,21.73
2018-01-12T13:06:08.336Z,15.63
2018-01-12T13:08:36.480Z,14.73
2018-01-12T13:11:04.640Z,15.70
2018-01-12T13:13:32.764Z,15.47
2018-01-12T13:16:00.888Z,15.07
2018-01-12T13:18:29.809Z,13.60
2018-01-12T13:20:58.044Z,14.60
2018-01-12T13:23:26.169Z,13.30
2018-01-12T13:25:55.104Z,14.27
2018-01-12T13:28:23.265Z,13.40
2018-01-12T13:30:51.405Z,13.83
2018-01-12T13:33:20.304Z,14.47
2018-01-12T13:35:48.442Z,21.53
2018-01-12T13:38:16.589Z,15.33
2018-01-12T13:40:44.730Z,15.67
2018-01-12T13:43:12.860Z,14.90
2018-01-12T13:45:41.774Z,16.60
2018-01-12T13:48:10.677Z,17.07
2018-01-12T13:50:38.857Z,13.60
2018-01-12T13:53:07.749Z,16.47
2018-01-12T13:55:35.906Z,17.80
2018-01-12T13:58:04.048Z,15.97
2018-01-12T14:00:32.238Z,14.57
2018-01-12T14:03:00.460Z,17.67
2018-01-12T14:05:28.605Z,16.70
2018-01-12T14:07:57.668Z,14.70
2018-01-12T14:10:26.575Z,17.20
2018-01-12T14:12:55.510Z,17.00
2018-01-12T14:15:23.632Z,17.13
2018-01-12T14:17:51.769Z,14.40
2018-01-12T14:20:19.919Z,18.53
2018-01-12T14:22:48.052Z,16.93
2018-01-12T14:25:16.195Z,16.30
2018-01-12T14:27:44.321Z,15.27
2018-01-12T14:30:12.469Z,14.20
2018-01-12T14:32:40.593Z,15.80
2018-01-12T14:35:08.753Z,14.60
2018-01-12T14:37:36.881Z,15.53
2018-01-12T14:40:05.026Z,17.00
2018-01-12T14:42:33.149Z,18.50
2018-01-12T14:45:01.277Z,16.63
2018-01-12T14:47:30.185Z,13.33
2018-01-12T14:49:58.318Z,16.20
2018-01-12T14:52:26.469Z,14.93
2018-01-12T14:54:54.714Z,15.07
2018-01-12T14:57:22.829Z,13.80
2018-01-12T14:59:51.021Z,13.53
2018-01-12T15:02:19.148Z,12.97
2018-01-12T15:04:47.272Z,14.70
2018-01-12T15:07:15.452Z,13.50
2018-01-12T15:09:43.697Z,14.37
2018-01-12T15:12:11.863Z,13.60
2018-01-12T15:14:39.989Z,15.67
2018-01-12T15:17:08.165Z,14.00
2018-01-12T15:19:36.284Z,16.80
2018-01-12T15:22:04.427Z,14.80
2018-01-12T15:24:32.805Z,20.00
2018-01-12T15:27:00.968Z,17.17
2018-01-12T15:29:29.096Z,16.23
2018-01-12T15:31:57.992Z,16.57
2018-01-12T15:34:26.170Z,14.70
2018-01-12T15:36:54.298Z,14.97
2018-01-12T15:39:22.448Z,14.80
2018-01-12T15:41:50.585Z,13.97
2018-01-12T15:44:19.509Z,16.67
2018-01-12T15:46:47.631Z,16.00
2018-01-12T15:49:16.560Z,19.10
2018-01-12T15:51:44.762Z,15.73
2018-01-12T15:54:13.102Z,17.90
2018-01-12T15:56:41.224Z,18.50
2018-01-12T15:59:09.456Z,18.47
2018-01-12T16:01:37.610Z,20.30
2018-01-12T16:04:05.753Z,18.20
2018-01-12T16:06:34.660Z,21.57
2018-01-12T16:09:03.148Z,19.50
2018-01-12T16:11:32.037Z,21.20
2018-01-12T16:14:00.165Z,20.13
2018-01-12T16:16:29.108Z,19.50
2018-01-12T16:18:57.297Z,19.92
2018-01-12T16:21:25.472Z,17.42
2018-01-12T16:23:53.608Z,18.00
2018-01-12T16:26:21.774Z,21.50
2018-01-12T16:28:49.911Z,21.65
2018-01-12T16:31:18.061Z,19.40
2018-01-12T16:33:46.210Z,23.55
2018-01-12T16:36:14.412Z,20.40
2018-01-12T16:38:42.600Z,20.90
2018-01-12T16:41:10.753Z,23.38
2018-01-12T16:43:38.928Z,23.17
2018-01-12T16:46:07.087Z,24.25
2018-01-12T16:48:35.220Z,25.67
2018-01-12T16:51:03.394Z,25.10
2018-01-12T16:53:31.546Z,24.63
2018-01-12T16:56:00.514Z,21.52
2018-01-12T16:58:28.679Z,20.37
2018-01-12T17:00:56.777Z,19.07
2018-01-12T17:03:25.721Z,19.47
2018-01-12T17:05:53.872Z,17.43
2018-01-12T17:08:22.047Z,18.70
2018-01-12T17:10:50.177Z,18.60
2018-01-12T17:13:19.094Z,18.77
2018-01-12T17:15:47.224Z,16.80
2018-01-12T17:18:15.365Z,17.17
2018-01-12T17:20:43.497Z,20.33
2018-01-12T17:23:11.652Z,19.60
2018-01-12T17:25:39.814Z,19.23
2018-01-12T17:28:07.956Z,18.43
2018-01-12T17:30:36.117Z,19.90
2018-01-12T17:33:04.262Z,25.20
2018-01-12T17:35:33.173Z,29.23
2018-01-12T17:38:01.300Z,22.47
2018-01-12T17:40:30.224Z,25.70
2018-01-12T17:42:58.388Z,22.30
2018-01-12T17:45:27.280Z,17.20
2018-01-12T17:47:56.335Z,20.10
2018-01-12T17:50:32.281Z,19.13
2018-01-12T17:53:00.402Z,18.63
2018-01-12T17:55:28.543Z,17.37
2018-01-12T17:57:56.668Z,20.70
2018-01-12T18:00:24.809Z,21.80
2018-01-12T18:02:53.573Z,21.77
2018-01-12T18:05:21.696Z,22.40
2018-01-12T18:07:49.835Z,21.50
2018-01-12T18:10:18.253Z,23.73
2018-01-12T18:12:46.412Z,23.60
2018-01-12T18:15:16.046Z,23.23
2018-01-12T18:17:44.352Z,25.13
2018-01-12T18:20:12.611Z,20.17
2018-01-12T18:22:40.829Z,21.83
2018-01-12T18:25:09.018Z,21.30
2018-01-12T18:27:37.167Z,19.20
2018-01-12T18:30:05.401Z,20.87
2018-01-12T18:32:34.304Z,23.13
2018-01-12T18:35:02.432Z,20.63
2018-01-12T18:37:30.654Z,61.23
2018-01-12T18:39:58.798Z,23.03
2018-01-12T18:42:26.932Z,22.33
2018-01-12T18:44:55.837Z,21.47
2018-01-12T18:47:23.972Z,21.57
2018-01-12T18:49:52.113Z,28.63
2018-01-12T18:52:20.398Z,21.30
2018-01-12T18:54:49.340Z,21.77
2018-01-12T18:57:17.503Z,22.77
2018-01-12T18:59:45.761Z,22.70
2018-01-12T19:02:14.073Z,23.87
2018-01-12T19:04:42.220Z,26.93
2018-01-12T19:07:10.455Z,25.87
2018-01-12T19:09:39.179Z,26.73
2018-01-12T19:12:07.281Z,25.23
2018-01-12T19:14:35.424Z,26.20
2018-01-12T19:17:03.553Z,26.93
2018-01-12T19:19:32.481Z,26.63
2018-01-12T19:22:00.690Z,25.90
2018-01-12T19:24:28.825Z,27.25
2018-01-12T19:26:56.965Z,24.77
2018-01-12T19:29:25.203Z,23.50
2018-01-12T19:31:53.385Z,21.43
2018-01-12T19:34:23.066Z,21.53
2018-01-12T19:36:51.248Z,27.17
2018-01-12T19:39:19.448Z,26.42
2018-01-12T19:41:47.585Z,23.07
2018-01-12T19:44:15.754Z,24.12
2018-01-12T19:46:43.885Z,22.80
2018-01-12T19:49:12.025Z,23.12
2018-01-12T19:51:40.520Z,22.87
2018-01-12T19:54:09.462Z,26.42
2018-01-12T19:56:37.661Z,24.87
2018-01-12T19:59:05.816Z,24.67
2018-01-12T20:01:34.057Z,23.67
2018-01-12T20:04:02.176Z,21.58
2018-01-12T20:06:30.365Z,22.67
2018-01-12T20:08:59.269Z,23.87
2018-01-12T20:11:27.414Z,20.00
2018-01-12T20:13:55.574Z,24.73
2018-01-12T20:16:23.710Z,23.40
2018-01-12T20:18:52.086Z,24.15
2018-01-12T20:21:20.437Z,25.02
2018-01-12T20:23:48.615Z,25.80
2018-01-12T20:26:17.520Z,23.20
2018-01-12T20:28:45.705Z,21.52
2018-01-12T20:31:13.918Z,23.90
2018-01-12T20:33:42.809Z,21.23
2018-01-12T20:36:10.966Z,23.65
2018-01-12T20:38:39.097Z,21.80
2018-01-12T20:41:07.351Z,24.65
2018-01-12T20:43:35.516Z,22.83
2018-01-12T20:46:04.431Z,24.30
2018-01-12T20:48:32.584Z,19.58
2018-01-12T20:51:01.522Z,23.17
2018-01-12T20:53:29.649Z,22.20
2018-01-12T20:55:57.901Z,27.35
2018-01-12T20:58:26.005Z,24.55
2018-01-12T21:00:54.270Z,19.30
2018-01-12T21:03:23.165Z,23.10
2018-01-12T21:05:51.648Z,28.15
2018-01-12T21:08:19.822Z,24.80
2018-01-12T21:10:47.974Z,23.80
2018-01-12T21:13:16.874Z,21.93
2018-01-12T21:15:44.989Z,25.77
2018-01-12T21:18:13.129Z,34.47
2018-01-12T21:20:41.249Z,36.78
2018-01-12T21:23:09.377Z,31.23
2018-01-12T21:25:37.534Z,42.43
2018-01-12T21:28:05.672Z,36.25
2018-01-12T21:30:34.591Z,32.83
2018-01-12T21:33:02.733Z,35.00
2018-01-12T21:35:30.948Z,36.00
2018-01-12T21:37:59.335Z,41.63
2018-01-12T21:40:27.459Z,19.00
2018-01-12T21:42:56.385Z,26.12
2018-01-12T21:45:24.651Z,35.57
2018-01-12T21:47:52.760Z,23.93
2018-01-12T21:50:21.145Z,26.50
2018-01-12T21:52:49.283Z,31.52
2018-01-12T21:55:17.423Z,27.90
2018-01-12T21:57:46.399Z,30.73
2018-01-12T22:00:14.517Z,34.95
2018-01-12T22:02:42.715Z,21.92
2018-01-12T22:05:11.598Z,20.90
2018-01-12T22:07:39.787Z,26.98
2018-01-12T22:10:07.900Z,21.87
2018-01-12T22:12:36.844Z,19.58
2018-01-12T22:15:04.959Z,17.85
2018-01-12T22:17:33.097Z,18.50
2018-01-12T22:20:02.073Z,18.65
2018-01-12T22:22:30.292Z,21.12
2018-01-12T22:24:59.192Z,21.65
2018-01-12T22:27:27.319Z,20.65
2018-01-12T22:29:55.495Z,18.33
2018-01-12T22:32:23.620Z,19.98
2018-01-12T22:34:51.798Z,19.27
2018-01-12T22:37:20.712Z,18.95
2018-01-12T22:39:48.846Z,19.87
2018-01-12T22:42:17.785Z,17.67
2018-01-12T22:44:45.950Z,17.60
2018-01-12T22:47:14.107Z,19.65
2018-01-12T22:49:43.303Z,21.77
2018-01-12T22:52:11.498Z,20.45
2018-01-12T22:54:39.671Z,21.70
2018-01-12T22:57:07.779Z,21.45
2018-01-12T22:59:36.713Z,21.80
2018-01-12T23:02:06.942Z,18.25
2018-01-12T23:04:35.086Z,18.17
2018-01-12T23:07:03.309Z,23.17
2018-01-12T23:09:31.481Z,19.80
2018-01-12T23:11:59.613Z,16.45
2018-01-12T23:14:27.732Z,21.10
2018-01-12T23:16:56.650Z,20.80
2018-01-12T23:19:24.942Z,20.08
2018-01-12T23:21:53.084Z,21.00
2018-01-12T23:24:21.235Z,23.77
2018-01-12T23:26:49.389Z,18.75
2018-01-12T23:29:17.500Z,20.00
2018-01-12T23:31:46.506Z,18.67
2018-01-12T23:34:15.446Z,19.50
2018-01-12T23:36:43.584Z,17.37
2018-01-12T23:39:11.720Z,19.80
2018-01-12T23:41:39.860Z,21.62
2018-01-12T23:44:08.001Z,22.02
2018-01-12T23:46:36.191Z,18.35
2018-01-12T23:49:04.315Z,19.95
2018-01-12T23:51:32.465Z,19.62
2018-01-12T23:54:00.615Z,19.40
2018-01-12T23:56:28.737Z,18.40
2018-01-12T23:58:57.648Z,17.17
